Time;durP1;ratioP1;P1;durP2;ratioP2;P2;SDS_P1;SDS_P2;PMS_P1;PMS_P2;Temp;Humidity;BMP_temperature;BMP_pressure;BME280_temperature;BME280_humidity;BME280_pressure;Samples;Min_cycle;Max_cycle;Signal;HPM_P1;HPM_P2
2022/01/30 00:01:15;;;;;;;3.70;2.97;;;;;;;-1.89;73.03;95537.59;5031693;28;20260;-71
2022/01/30 00:03:42;;;;;;;3.83;3.53;;;;;;;-1.80;73.40;95542.81;5031176;28;20930;-69
2022/01/30 00:06:08;;;;;;;4.40;3.30;;;;;;;-1.92;74.30;95542.53;5030794;28;20231;-71
2022/01/30 00:08:35;;;;;;;3.73;3.50;;;;;;;-1.72;73.73;95551.25;5031198;28;20230;-72
2022/01/30 00:11:10;;;;;;;3.73;3.43;;;;;;;-1.60;73.47;95539.06;5031934;28;20296;-72
2022/01/30 00:13:38;;;;;;;3.87;3.57;;;;;;;-1.56;72.67;95538.31;5032340;28;20234;-68
2022/01/30 00:16:08;;;;;;;3.67;3.37;;;;;;;-1.61;72.85;95529.91;5032711;28;20203;-69
2022/01/30 00:18:50;;;;;;;3.83;3.53;;;;;;;-1.63;72.79;95529.03;5033278;28;20203;-69
2022/01/30 00:21:30;;;;;;;3.57;3.37;;;;;;;-1.89;73.10;95506.06;5031720;28;20281;-70
2022/01/30 00:24:02;;;;;;;3.53;3.33;;;;;;;-1.74;73.86;95508.06;5031810;28;20452;-71
2022/01/30 00:26:31;;;;;;;5.30;3.33;;;;;;;-1.69;73.36;95513.94;5032878;28;20211;-72
2022/01/30 00:29:00;;;;;;;3.00;2.80;;;;;;;-1.59;73.97;95515.81;5033259;28;20218;-72
2022/01/30 00:31:27;;;;;;;5.40;4.13;;;;;;;-1.67;73.74;95514.81;5032078;28;20230;-70
2022/01/30 00:33:54;;;;;;;5.63;4.47;;;;;;;-1.77;74.13;95493.03;5031689;28;20617;-71
2022/01/30 00:36:21;;;;;;;4.83;4.23;;;;;;;-1.87;74.35;95496.13;5031761;28;20232;-72
2022/01/30 00:38:48;;;;;;;4.77;4.30;;;;;;;-1.78;74.44;95506.31;5032090;28;20191;-71
2022/01/30 00:41:14;;;;;;;5.13;4.27;;;;;;;-1.57;74.17;95486.78;5032604;28;20235;-68
2022/01/30 00:43:41;;;;;;;5.10;3.83;;;;;;;-1.35;72.86;95489.69;5032512;28;20203;-68
2022/01/30 00:46:10;;;;;;;5.03;4.37;;;;;;;-1.46;72.97;95495.31;5028579;28;20211;-73
2022/01/30 00:48:36;;;;;;;5.10;3.97;;;;;;;-1.35;72.26;95495.53;5030114;28;20256;-68
2022/01/30 00:51:03;;;;;;;4.27;3.87;;;;;;;-1.46;72.92;95485.34;5030004;28;20316;-69
2022/01/30 00:53:30;;;;;;;4.43;3.93;;;;;;;-1.51;72.89;95491.06;5030186;28;20336;-71
2022/01/30 00:55:57;;;;;;;5.73;3.40;;;;;;;-1.52;72.64;95460.31;5029582;28;20253;-71
2022/01/30 00:58:24;;;;;;;6.70;3.37;;;;;;;-1.34;72.21;95468.94;5028725;28;20847;-70
2022/01/30 01:00:51;;;;;;;3.70;3.40;;;;;;;-1.47;72.12;95467.84;5029362;28;20234;-68
2022/01/30 01:03:19;;;;;;;6.07;3.40;;;;;;;-1.47;72.20;95470.34;5029300;28;20202;-69
2022/01/30 01:05:46;;;;;;;3.53;3.23;;;;;;;-1.51;72.53;95451.19;5030302;28;20253;-71
2022/01/30 01:08:17;;;;;;;3.70;3.03;;;;;;;-1.68;73.17;95453.34;5030451;28;20207;-72
2022/01/30 01:10:48;;;;;;;4.40;2.97;;;;;;;-1.75;73.85;95446.56;5029729;28;20235;-72
2022/01/30 01:13:48;;;;;;;3.03;2.83;;;;;;;-1.60;73.30;95448.50;5030168;28;20230;-71
2022/01/30 01:24:29;;;;;;;3.33;3.03;;;;;;;-1.59;72.77;95423.63;5031834;28;20276;-71
2022/01/30 01:26:56;;;;;;;3.50;3.30;;;;;;;-1.27;71.03;95423.38;5032031;28;20269;-69
2022/01/30 01:29:23;;;;;;;3.03;2.73;;;;;;;-1.34;70.28;95412.44;5031274;28;20284;-69
2022/01/30 01:31:49;;;;;;;3.20;2.70;;;;;;;-1.44;71.37;95418.06;5030999;28;20231;-70
2022/01/30 01:34:31;;;;;;;3.40;3.10;;;;;;;-1.60;71.62;95411.13;5030957;28;20266;-70
2022/01/30 01:36:58;;;;;;;3.80;3.50;;;;;;;-1.64;71.57;95400.25;5031627;28;20213;-69
2022/01/30 01:39:25;;;;;;;3.80;3.50;;;;;;;-1.54;71.56;95404.63;5030796;28;20295;-70
2022/01/30 01:41:52;;;;;;;2.93;2.63;;;;;;;-1.46;71.33;95408.06;5032071;28;20230;-69
2022/01/30 01:44:23;;;;;;;3.13;2.93;;;;;;;-1.49;71.73;95400.56;5030830;28;20235;-68
2022/01/30 01:46:49;;;;;;;3.93;2.93;;;;;;;-1.57;71.64;95397.09;5031514;28;21250;-71
2022/01/30 01:49:24;;;;;;;3.40;3.03;;;;;;;-1.82;72.72;95387.47;5028272;28;20207;-70
2022/01/30 01:52:03;;;;;;;3.97;3.37;;;;;;;-1.64;72.88;95400.25;5029219;28;20199;-70
2022/01/30 01:54:30;;;;;;;3.33;2.97;;;;;;;-1.56;72.35;95387.94;5028858;28;20245;-70
2022/01/30 01:56:57;;;;;;;4.37;3.97;;;;;;;-1.77;72.89;95388.41;5030062;28;20234;-72
2022/01/30 01:59:24;;;;;;;4.10;3.63;;;;;;;-1.83;73.31;95384.16;5033759;28;20277;-70
2022/01/30 02:01:53;;;;;;;3.90;3.47;;;;;;;-1.85;73.95;95372.47;5032972;28;20214;-72
2022/01/30 02:04:21;;;;;;;4.13;3.77;;;;;;;-1.82;73.36;95360.91;5033272;28;20202;-69
2022/01/30 02:06:49;;;;;;;4.63;3.53;;;;;;;-1.95;73.94;95368.94;5031584;28;20203;-71
2022/01/30 02:09:16;;;;;;;4.17;3.47;;;;;;;-1.93;74.33;95369.81;5030561;28;20256;-71
2022/01/30 02:11:45;;;;;;;4.10;3.50;;;;;;;-1.78;73.62;95381.75;5032651;28;20234;-71
2022/01/30 02:14:26;;;;;;;8.70;4.17;;;;;;;-1.51;72.63;95381.41;5030983;28;21015;-71
2022/01/30 02:25:28;;;;;;;5.17;3.20;;;;;;;-1.85;73.24;95375.81;5034574;28;20795;-73
2022/01/30 02:27:58;;;;;;;4.20;3.57;;;;;;;-1.96;72.76;95371.41;5027234;28;20217;-70
2022/01/30 02:30:30;;;;;;;3.93;3.53;;;;;;;-2.24;72.90;95351.00;5033448;28;20302;-71
2022/01/30 02:32:57;;;;;;;8.97;4.67;;;;;;;-2.40;74.19;95358.94;5033781;28;20199;-71
2022/01/30 02:35:24;;;;;;;9.40;5.17;;;;;;;-2.57;75.10;95355.25;5033366;28;20210;-71
2022/01/30 02:37:54;;;;;;;8.30;5.37;;;;;;;-2.67;75.73;95359.19;5034215;28;20599;-72
2022/01/30 02:40:21;;;;;;;10.90;5.33;;;;;;;-2.76;75.78;95349.06;5034519;28;20210;-72
2022/01/30 02:42:51;;;;;;;12.17;5.30;;;;;;;-2.82;76.21;95338.97;5034612;28;20649;-73
2022/01/30 02:45:19;;;;;;;9.33;4.73;;;;;;;-2.86;76.26;95338.06;5034514;28;20254;-71
2022/01/30 02:47:56;;;;;;;7.47;4.53;;;;;;;-2.75;75.98;95336.66;5033436;28;20208;-70
2022/01/30 02:50:35;;;;;;;8.53;5.17;;;;;;;-2.74;75.74;95337.50;5031220;28;20235;-69
2022/01/30 02:53:07;;;;;;;5.70;4.70;;;;;;;-2.81;75.71;95333.19;5032941;28;20260;-72
2022/01/30 02:55:34;;;;;;;7.63;3.80;;;;;;;-2.62;75.17;95339.41;5032994;28;20210;-71
2022/01/30 02:58:00;;;;;;;6.77;4.53;;;;;;;-2.59;75.25;95329.50;5031503;28;20203;-73
2022/01/30 03:00:27;;;;;;;9.47;4.90;;;;;;;-2.27;73.84;95320.22;5032362;28;20235;-71
2022/01/30 03:02:54;;;;;;;8.10;5.40;;;;;;;-2.28;73.09;95318.53;5032276;28;20588;-69
2022/01/30 03:05:21;;;;;;;7.23;4.97;;;;;;;-2.46;73.23;95299.06;5032014;28;20662;-70
2022/01/30 03:07:55;;;;;;;9.10;4.70;;;;;;;-2.51;73.74;95306.47;5032036;28;20280;-71
2022/01/30 03:10:24;;;;;;;5.37;3.70;;;;;;;-2.60;74.53;95311.25;5027699;28;20285;-72
2022/01/30 03:12:52;;;;;;;11.67;4.57;;;;;;;-2.76;75.41;95315.09;5032747;28;20674;-71
2022/01/30 03:15:18;;;;;;;8.97;4.23;;;;;;;-2.70;75.82;95313.50;5031891;28;20794;-72
2022/01/30 03:17:45;;;;;;;4.40;3.70;;;;;;;-2.56;75.55;95332.06;5031841;28;20739;-70
2022/01/30 03:20:12;;;;;;;5.67;4.77;;;;;;;-2.38;75.43;95327.47;5033216;28;20226;-71
2022/01/30 03:22:40;;;;;;;3.60;3.30;;;;;;;-2.42;75.38;95321.56;5033368;28;20643;-70
2022/01/30 03:25:07;;;;;;;5.03;3.63;;;;;;;-2.48;75.18;95309.03;5032655;28;20227;-72
2022/01/30 03:27:35;;;;;;;7.23;3.47;;;;;;;-2.31;75.17;95309.34;5033030;28;20226;-70
2022/01/30 03:30:05;;;;;;;5.87;3.40;;;;;;;-2.50;75.59;95312.28;5033038;28;20208;-72
2022/01/30 03:32:32;;;;;;;3.67;3.37;;;;;;;-2.63;76.36;95316.16;5033510;28;20230;-72
2022/01/30 03:34:59;;;;;;;4.67;4.27;;;;;;;-2.57;76.00;95318.78;5033301;28;20276;-72
2022/01/30 03:37:26;;;;;;;4.00;3.30;;;;;;;-2.35;75.59;95314.22;5032097;28;20207;-72
2022/01/30 03:39:53;;;;;;;3.33;3.03;;;;;;;-2.69;76.58;95325.13;5033360;28;20227;-68
2022/01/30 03:42:20;;;;;;;4.37;3.80;;;;;;;-2.64;76.56;95326.09;5032642;28;20271;-72
2022/01/30 03:44:48;;;;;;;3.50;3.30;;;;;;;-2.54;76.93;95320.50;5033336;28;20223;-70
2022/01/30 03:47:15;;;;;;;3.77;3.47;;;;;;;-2.44;76.26;95317.38;5033487;28;20308;-70
2022/01/30 03:49:43;;;;;;;6.07;3.90;;;;;;;-2.41;76.01;95329.88;5031121;28;20230;-72
2022/01/30 03:52:09;;;;;;;7.87;3.77;;;;;;;-2.29;74.65;95326.81;5030519;28;20207;-70
2022/01/30 03:54:37;;;;;;;3.83;3.50;;;;;;;-2.46;75.74;95321.47;5029665;28;20335;-70
2022/01/30 03:57:05;;;;;;;4.27;3.90;;;;;;;-2.28;75.36;95314.41;5031696;28;20207;-70
2022/01/30 03:59:34;;;;;;;4.00;3.70;;;;;;;-2.02;74.25;95309.91;5032157;28;20199;-70
2022/01/30 04:02:02;;;;;;;4.70;4.33;;;;;;;-1.79;73.05;95306.16;5031985;28;20202;-70
2022/01/30 04:04:29;;;;;;;4.97;4.57;;;;;;;-2.07;73.27;95292.38;5031286;28;20207;-70
2022/01/30 04:06:57;;;;;;;5.00;4.50;;;;;;;-2.47;74.23;95297.41;5030912;28;20203;-71
2022/01/30 04:09:24;;;;;;;7.17;4.63;;;;;;;-2.57;75.81;95293.91;5030662;28;20199;-71
2022/01/30 04:11:52;;;;;;;4.97;3.93;;;;;;;-2.65;76.22;95297.88;5030538;28;20941;-70
2022/01/30 04:14:19;;;;;;;5.53;3.70;;;;;;;-2.63;76.35;95292.94;5031547;28;20288;-70
2022/01/30 04:16:47;;;;;;;5.47;4.47;;;;;;;-2.58;76.09;95287.25;5031526;28;20231;-70
2022/01/30 04:19:15;;;;;;;8.67;4.50;;;;;;;-2.42;75.42;95285.88;5030447;28;20232;-70
2022/01/30 04:21:42;;;;;;;4.60;4.10;;;;;;;-2.30;75.04;95271.22;5032135;28;20700;-70
2022/01/30 04:24:09;;;;;;;6.90;4.20;;;;;;;-2.22;74.42;95248.91;5031909;28;20647;-70
2022/01/30 04:26:36;;;;;;;4.80;4.40;;;;;;;-2.69;75.69;95256.31;5032390;28;20231;-70
2022/01/30 04:29:03;;;;;;;4.73;4.10;;;;;;;-2.64;75.67;95239.84;5032190;28;20749;-70
2022/01/30 04:31:30;;;;;;;5.33;4.83;;;;;;;-2.86;76.27;95228.66;5033497;28;20258;-70
2022/01/30 04:33:58;;;;;;;5.63;4.53;;;;;;;-2.69;75.93;95243.06;5030893;28;20911;-70
2022/01/30 04:36:32;;;;;;;6.93;4.87;;;;;;;-2.25;74.43;95229.81;5032533;28;20214;-70
2022/01/30 04:39:06;;;;;;;5.47;4.53;;;;;;;-2.31;74.09;95229.69;5030666;28;20203;-70
2022/01/30 04:41:57;;;;;;;6.63;6.03;;;;;;;-2.48;74.62;95244.34;5032383;28;20631;-70
2022/01/30 04:56:07;;;;;;;13.00;8.80;;;;;;;-2.50;76.13;95252.56;5022421;28;20234;-70
2022/01/30 04:58:27;;;;;;;19.40;8.20;;;;;;;-2.48;76.52;95254.28;5029041;28;20303;-71
2022/01/30 05:01:05;;;;;;;12.83;8.67;;;;;;;-2.36;75.87;95260.28;5030241;28;20214;-71
2022/01/30 05:03:47;;;;;;;11.87;7.87;;;;;;;-2.31;75.32;95263.72;5030295;28;20207;-70
2022/01/30 05:06:18;;;;;;;13.00;8.17;;;;;;;-2.18;75.62;95246.53;5031113;28;20195;-70
2022/01/30 05:08:46;;;;;;;12.93;8.60;;;;;;;-1.95;74.44;95233.63;5029876;28;20207;-70
2022/01/30 05:11:13;;;;;;;9.57;7.50;;;;;;;-2.01;74.79;95229.41;5030268;28;20285;-70
2022/01/30 05:13:45;;;;;;;14.50;8.37;;;;;;;-2.64;76.37;95204.19;5029799;28;20203;-70
2022/01/30 05:16:13;;;;;;;19.53;9.03;;;;;;;-2.36;75.81;95203.88;5030711;28;20203;-70
2022/01/30 05:18:40;;;;;;;14.20;8.50;;;;;;;-2.27;76.21;95191.63;5027846;28;20217;-70
2022/01/30 05:21:07;;;;;;;15.90;10.00;;;;;;;-2.03;75.13;95180.38;5029946;28;20701;-70
2022/01/30 05:23:34;;;;;;;15.73;9.50;;;;;;;-1.98;74.67;95172.16;5031418;28;20292;-70
2022/01/30 05:26:07;;;;;;;14.73;9.20;;;;;;;-1.79;73.78;95160.84;5031650;28;20226;-70
2022/01/30 05:28:34;;;;;;;14.90;10.07;;;;;;;-2.50;76.09;95148.91;5031533;28;21684;-70
2022/01/30 05:31:02;;;;;;;17.20;9.13;;;;;;;-2.58;77.42;95159.53;5031762;28;20234;-70
2022/01/30 05:33:29;;;;;;;18.77;10.07;;;;;;;-2.26;76.38;95182.50;5030982;28;20843;-70
2022/01/30 05:35:56;;;;;;;16.37;9.00;;;;;;;-1.91;74.92;95175.59;5031165;28;20258;-70
2022/01/30 05:38:23;;;;;;;12.43;7.53;;;;;;;-1.81;74.50;95182.41;5031061;28;21684;-70
2022/01/30 05:40:50;;;;;;;10.87;7.33;;;;;;;-2.07;75.29;95190.28;5030864;28;20272;-70
2022/01/30 05:43:19;;;;;;;8.17;7.33;;;;;;;-1.95;74.19;95201.25;5031949;28;20239;-70
2022/01/30 05:45:53;;;;;;;8.47;6.07;;;;;;;-2.03;73.76;95202.81;5031407;28;20225;-70
2022/01/30 05:48:20;;;;;;;8.83;7.10;;;;;;;-1.78;73.46;95217.31;5030414;28;20198;-70
2022/01/30 05:50:48;;;;;;;11.70;7.60;;;;;;;-1.71;73.50;95209.13;5030521;28;20199;-70
2022/01/30 05:53:14;;;;;;;16.60;8.20;;;;;;;-1.74;73.51;95204.94;5031568;28;20230;-70
2022/01/30 05:55:41;;;;;;;11.67;8.23;;;;;;;-2.00;74.72;95195.38;5030844;28;20717;-70
2022/01/30 05:58:08;;;;;;;11.63;7.33;;;;;;;-1.86;75.16;95183.97;5031228;28;20297;-70
2022/01/30 06:00:37;;;;;;;9.13;7.40;;;;;;;-1.91;74.67;95175.59;5028028;28;20206;-70
2022/01/30 06:03:03;;;;;;;15.20;7.63;;;;;;;-1.91;75.39;95190.53;5028263;28;21554;-69
2022/01/30 06:05:31;;;;;;;9.10;5.97;;;;;;;-1.92;75.66;95178.88;5029004;28;20751;-69
2022/01/30 06:07:58;;;;;;;13.90;6.00;;;;;;;-2.14;76.32;95160.28;5029499;28;20199;-69
2022/01/30 06:10:26;;;;;;;10.77;6.33;;;;;;;-1.77;75.94;95162.56;5028199;28;21097;-69
2022/01/30 06:12:54;;;;;;;11.23;7.87;;;;;;;-2.18;76.64;95156.91;5029565;28;20273;-69
2022/01/30 06:15:20;;;;;;;12.23;7.67;;;;;;;-2.17;76.46;95153.59;5029265;28;20550;-69
2022/01/30 06:17:48;;;;;;;9.37;7.33;;;;;;;-2.19;76.93;95150.25;5029365;28;20249;-69
2022/01/30 06:20:15;;;;;;;11.27;7.00;;;;;;;-2.21;77.34;95131.94;5028390;28;20641;-69
2022/01/30 06:22:42;;;;;;;13.53;8.30;;;;;;;-1.86;75.86;95125.03;5029708;28;20261;-69
2022/01/30 06:25:10;;;;;;;10.77;7.33;;;;;;;-1.69;74.72;95146.84;5028659;28;20254;-69
2022/01/30 06:27:37;;;;;;;12.27;7.47;;;;;;;-1.91;75.33;95154.00;5029570;28;20312;-69
2022/01/30 06:30:05;;;;;;;11.20;7.50;;;;;;;-1.85;74.98;95143.31;5029164;28;20230;-69
2022/01/30 06:32:32;;;;;;;10.00;7.70;;;;;;;-1.67;74.18;95137.75;5030935;28;20323;-69
2022/01/30 06:35:00;;;;;;;15.27;8.10;;;;;;;-1.71;74.41;95136.88;5030114;28;20227;-69
2022/01/30 06:37:27;;;;;;;14.93;8.23;;;;;;;-1.43;73.21;95128.94;5030475;28;20231;-69
2022/01/30 06:39:53;;;;;;;15.40;8.60;;;;;;;-1.51;73.97;95145.47;5029228;28;20282;-70
2022/01/30 06:42:20;;;;;;;15.17;7.80;;;;;;;-1.69;74.21;95142.72;5030608;28;20195;-68
2022/01/30 06:44:48;;;;;;;14.53;9.20;;;;;;;-1.67;75.41;95161.00;5033853;28;20227;-70
2022/01/30 06:47:14;;;;;;;17.43;7.93;;;;;;;-1.66;75.17;95147.75;5033815;28;20203;-69
2022/01/30 06:49:41;;;;;;;17.10;8.07;;;;;;;-1.58;74.30;95178.59;5032462;28;20230;-69
2022/01/30 06:52:11;;;;;;;12.60;8.60;;;;;;;-1.45;73.48;95158.00;5034127;28;20662;-69
2022/01/30 06:54:38;;;;;;;18.17;9.40;;;;;;;-1.27;72.63;95136.66;5034375;28;20704;-69
2022/01/30 06:57:07;;;;;;;15.23;8.87;;;;;;;-1.04;72.25;95145.25;5033605;28;20682;-69
2022/01/30 06:59:34;;;;;;;13.83;8.03;;;;;;;-1.43;73.53;95146.41;5033443;28;20285;-69
2022/01/30 07:02:00;;;;;;;14.00;8.00;;;;;;;-1.52;73.90;95140.47;5034260;28;20288;-69
2022/01/30 07:04:27;;;;;;;15.60;8.63;;;;;;;-1.24;73.58;95137.53;5031389;28;20235;-69
2022/01/30 07:06:54;;;;;;;41.20;19.50;;;;;;;-0.83;73.00;95133.03;5032624;28;20650;-69
2022/01/30 07:09:22;;;;;;;21.97;11.60;;;;;;;-0.64;71.45;95133.22;5032578;28;20202;-69
2022/01/30 07:11:49;;;;;;;15.37;8.63;;;;;;;-0.30;70.58;95122.72;5031604;28;20250;-68
2022/01/30 07:14:16;;;;;;;9.20;7.23;;;;;;;-0.56;70.62;95126.66;5032108;28;21127;-71
2022/01/30 07:16:42;;;;;;;16.37;9.03;;;;;;;-0.30;69.29;95127.72;5032489;28;20253;-69
2022/01/30 07:19:09;;;;;;;13.23;8.70;;;;;;;-0.14;69.21;95138.69;5031753;28;21577;-69
2022/01/30 07:21:36;;;;;;;12.67;8.97;;;;;;;-0.05;68.88;95142.09;5031342;28;20709;-69
2022/01/30 07:24:03;;;;;;;14.30;7.13;;;;;;;0.14;67.95;95149.72;5032186;28;20210;-69
2022/01/30 07:26:34;;;;;;;7.67;5.90;;;;;;;0.61;66.85;95148.38;5031831;28;20230;-69
2022/01/30 07:29:00;;;;;;;10.37;6.43;;;;;;;1.33;65.94;95154.53;5031338;28;20270;-69
2022/01/30 07:31:27;;;;;;;12.73;7.10;;;;;;;1.69;63.24;95151.31;5031340;28;20234;-69
2022/01/30 07:33:54;;;;;;;10.37;7.00;;;;;;;1.41;63.75;95148.75;5032266;28;20320;-68
2022/01/30 07:36:21;;;;;;;9.47;6.20;;;;;;;0.69;64.32;95155.94;5033250;28;20738;-69
2022/01/30 07:38:47;;;;;;;12.47;8.20;;;;;;;0.65;66.69;95164.25;5033422;28;20253;-70
2022/01/30 07:41:14;;;;;;;18.23;7.10;;;;;;;0.67;65.05;95158.44;5032235;28;20206;-69
2022/01/30 07:43:42;;;;;;;12.87;7.20;;;;;;;0.67;66.38;95160.94;5033496;28;20195;-69
2022/01/30 07:46:09;;;;;;;23.13;7.63;;;;;;;0.69;65.66;95145.94;5033203;28;20901;-70
2022/01/30 07:48:36;;;;;;;13.80;7.27;;;;;;;1.07;65.79;95136.09;5033285;28;20198;-69
2022/01/30 07:51:03;;;;;;;14.83;6.53;;;;;;;1.27;66.63;95151.19;5032275;28;20223;-69
2022/01/30 07:53:30;;;;;;;15.87;8.87;;;;;;;1.51;63.45;95141.22;5033031;28;20716;-69
2022/01/30 07:55:56;;;;;;;12.43;6.77;;;;;;;1.67;62.65;95132.09;5032360;28;20248;-69
2022/01/30 07:58:23;;;;;;;15.20;6.63;;;;;;;2.04;62.16;95118.75;5031959;28;20218;-69
2022/01/30 08:00:51;;;;;;;14.60;6.83;;;;;;;2.39;60.90;95118.75;5030932;28;20290;-70
2022/01/30 08:03:18;;;;;;;11.33;6.70;;;;;;;3.18;58.27;95120.19;5032704;28;20622;-70
2022/01/30 08:05:45;;;;;;;14.00;6.47;;;;;;;4.63;56.12;95099.88;5029730;28;20674;-70
2022/01/30 08:08:12;;;;;;;21.00;7.50;;;;;;;5.86;52.87;95089.91;5030973;28;20210;-69
2022/01/30 08:10:39;;;;;;;14.30;6.50;;;;;;;7.14;50.20;95086.00;5028844;28;20246;-69
2022/01/30 08:13:06;;;;;;;10.07;7.07;;;;;;;7.39;46.11;95073.69;5030253;28;20269;-69
2022/01/30 08:15:32;;;;;;;15.40;8.23;;;;;;;5.77;49.81;95083.31;5031110;28;20673;-69
2022/01/30 08:18:01;;;;;;;16.40;8.48;;;;;;;6.61;49.19;95071.88;5031125;28;20230;-69
2022/01/30 08:20:28;;;;;;;13.30;8.00;;;;;;;7.05;47.88;95070.19;5029915;28;20207;-69
2022/01/30 08:22:56;;;;;;;16.40;8.18;;;;;;;8.67;43.92;95080.81;5030178;28;21239;-69
2022/01/30 08:25:24;;;;;;;8.30;7.53;;;;;;;9.97;39.67;95062.72;5031138;28;20222;-69
2022/01/30 08:27:52;;;;;;;14.48;7.05;;;;;;;11.56;38.09;95073.41;5031110;28;20210;-69
2022/01/30 08:30:19;;;;;;;12.25;7.60;;;;;;;11.72;35.75;95063.47;5030758;28;20214;-70
2022/01/30 08:32:50;;;;;;;11.93;8.38;;;;;;;13.10;33.67;95054.47;5029798;28;20203;-69
2022/01/30 08:35:20;;;;;;;13.63;6.90;;;;;;;14.78;30.42;95066.22;5031750;28;20273;-69
2022/01/30 08:37:48;;;;;;;13.63;8.40;;;;;;;16.65;29.24;95042.50;5032070;28;20708;-69
2022/01/30 08:40:17;;;;;;;11.77;7.68;;;;;;;16.43;28.23;95044.59;5032086;28;20203;-69
2022/01/30 08:42:44;;;;;;;12.75;8.38;;;;;;;16.32;28.48;95046.06;5031583;28;20288;-69
2022/01/30 08:45:13;;;;;;;15.65;8.18;;;;;;;15.13;29.35;95061.84;5032357;28;20689;-69
2022/01/30 08:47:41;;;;;;;25.65;13.18;;;;;;;15.10;30.01;95064.56;5032411;28;20199;-69
2022/01/30 08:50:09;;;;;;;14.30;8.00;;;;;;;16.37;28.60;95050.06;5031082;28;20248;-70
2022/01/30 08:52:38;;;;;;;16.27;9.35;;;;;;;16.10;28.25;95058.41;5031149;28;20211;-69
2022/01/30 08:55:07;;;;;;;18.88;10.18;;;;;;;16.39;28.09;95048.25;5032216;28;20230;-69
2022/01/30 08:57:34;;;;;;;12.35;8.73;;;;;;;15.15;29.53;95056.66;5032811;28;20243;-69
2022/01/30 09:00:01;;;;;;;20.10;9.85;;;;;;;15.09;29.51;95069.78;5031966;28;20241;-69
2022/01/30 09:02:28;;;;;;;25.60;10.48;;;;;;;14.09;30.84;95073.81;5028056;28;20885;-70
2022/01/30 09:04:55;;;;;;;26.58;11.10;;;;;;;14.60;30.43;95075.59;5031440;28;20218;-69
2022/01/30 09:07:21;;;;;;;18.52;10.40;;;;;;;14.40;30.70;95078.25;5030910;28;20317;-69
2022/01/30 09:09:49;;;;;;;15.02;9.95;;;;;;;14.33;31.14;95066.69;5031776;28;20291;-69
2022/01/30 09:12:16;;;;;;;18.58;10.15;;;;;;;12.32;32.72;95064.56;5031942;28;21141;-68
2022/01/30 09:14:43;;;;;;;19.77;9.43;;;;;;;9.53;37.44;95080.13;5031688;28;20211;-69
2022/01/30 09:17:13;;;;;;;26.05;10.68;;;;;;;7.94;42.36;95084.28;5031085;28;20238;-68
2022/01/30 09:19:41;;;;;;;22.58;11.00;;;;;;;7.08;43.74;95083.59;5032132;28;20203;-68
2022/01/30 09:22:09;;;;;;;22.13;11.23;;;;;;;6.63;45.43;95089.53;5031744;28;20199;-68
2022/01/30 09:24:36;;;;;;;20.35;9.80;;;;;;;7.67;44.48;95094.16;5032699;28;20298;-69
2022/01/30 09:27:04;;;;;;;24.73;10.00;;;;;;;8.42;42.81;95073.00;5030591;28;20293;-68
2022/01/30 09:29:31;;;;;;;17.48;9.95;;;;;;;8.96;40.98;95056.41;5030174;28;20726;-69
2022/01/30 09:31:59;;;;;;;19.05;9.85;;;;;;;7.81;42.40;95050.84;5031127;28;20210;-69
2022/01/30 09:34:26;;;;;;;21.93;11.10;;;;;;;7.50;43.99;95043.13;5031665;28;20213;-69
2022/01/30 09:36:53;;;;;;;24.47;10.90;;;;;;;7.09;44.96;95029.66;5029747;28;22233;-69
2022/01/30 09:39:20;;;;;;;31.63;10.63;;;;;;;6.64;45.81;95017.97;5029348;28;20214;-68
2022/01/30 09:41:51;;;;;;;19.23;12.25;;;;;;;6.71;45.77;95010.22;5029368;28;20658;-70
2022/01/30 09:44:21;;;;;;;20.08;10.18;;;;;;;6.29;45.98;94996.72;5029410;28;20273;-69
2022/01/30 09:46:49;;;;;;;24.40;9.97;;;;;;;5.86;46.01;95006.69;5030026;28;20272;-70
2022/01/30 09:49:20;;;;;;;19.70;9.77;;;;;;;5.69;47.45;95003.63;5029964;28;20210;-70
2022/01/30 09:51:47;;;;;;;22.92;10.38;;;;;;;5.85;47.30;94992.41;5029251;28;20256;-69
2022/01/30 09:54:14;;;;;;;22.33;10.75;;;;;;;6.05;46.44;94992.09;5029216;28;20806;-69
2022/01/30 09:56:41;;;;;;;18.60;10.43;;;;;;;6.30;45.82;94987.44;5028751;28;20999;-70
2022/01/30 09:59:08;;;;;;;23.17;10.65;;;;;;;6.58;46.35;94983.56;5029433;28;20238;-69
2022/01/30 10:01:38;;;;;;;21.40;10.60;;;;;;;6.31;46.05;94961.34;5029479;28;20195;-69
2022/01/30 10:04:06;;;;;;;17.17;11.10;;;;;;;5.98;45.93;94970.34;5029646;28;20817;-69
2022/01/30 10:06:51;;;;;;;20.73;11.75;;;;;;;5.55;46.91;94965.16;5029303;28;20236;-69
2022/01/30 10:09:25;;;;;;;25.50;10.17;;;;;;;5.59;47.47;94961.75;5030603;28;20203;-69
2022/01/30 10:12:01;;;;;;;23.80;12.18;;;;;;;5.55;47.79;94955.91;5030767;28;20242;-69
2022/01/30 10:14:28;;;;;;;27.37;12.53;;;;;;;5.51;48.04;94939.16;5031667;28;20203;-68
2022/01/30 10:16:57;;;;;;;29.15;12.32;;;;;;;5.35;47.84;94963.78;5030612;28;20705;-69
2022/01/30 10:19:24;;;;;;;18.67;10.38;;;;;;;5.48;48.17;94950.13;5033688;28;20666;-69
2022/01/30 10:22:04;;;;;;;22.13;11.50;;;;;;;5.77;47.83;94977.41;5034207;28;20897;-69
2022/01/30 10:24:31;;;;;;;24.65;11.45;;;;;;;5.96;47.08;94972.91;5034884;28;20222;-70
2022/01/30 10:27:02;;;;;;;24.27;11.33;;;;;;;6.17;46.82;94978.47;5034477;28;20429;-69
2022/01/30 10:29:31;;;;;;;20.13;11.27;;;;;;;6.31;46.00;94961.34;5034736;28;20658;-69
2022/01/30 10:32:01;;;;;;;31.75;11.70;;;;;;;6.34;46.46;94948.69;5034061;28;20210;-69
2022/01/30 10:34:28;;;;;;;24.15;11.13;;;;;;;6.42;45.94;94936.75;5033219;28;20203;-69
2022/01/30 10:37:19;;;;;;;23.50;9.48;;;;;;;6.44;45.90;94935.00;5034378;28;20226;-69
2022/01/30 10:40:03;;;;;;;19.08;9.90;;;;;;;6.52;46.62;94932.34;5035563;28;20209;-69
2022/01/30 10:42:41;;;;;;;24.50;11.13;;;;;;;6.28;45.87;94924.38;5030675;28;20203;-70
2022/01/30 10:45:10;;;;;;;22.45;9.75;;;;;;;6.16;45.85;94906.97;5032968;28;20203;-69
2022/01/30 10:47:40;;;;;;;31.60;11.32;;;;;;;6.44;46.00;94905.56;5032964;28;20567;-70
2022/01/30 10:50:13;;;;;;;17.38;10.20;;;;;;;6.35;45.49;94894.81;5032623;28;20207;-71
2022/01/30 10:52:55;;;;;;;19.63;10.90;;;;;;;5.94;46.43;94886.34;5032178;28;20218;-70
2022/01/30 10:55:33;;;;;;;14.90;8.57;;;;;;;6.05;46.22;94896.25;5032817;28;20264;-71
2022/01/30 10:58:01;;;;;;;24.75;9.32;;;;;;;6.30;45.48;94899.97;5032188;28;20236;-70
2022/01/30 11:00:41;;;;;;;23.52;10.90;;;;;;;6.16;45.42;94888.47;5032894;28;20210;-69
2022/01/30 11:03:10;;;;;;;21.95;10.48;;;;;;;6.40;45.79;94893.03;5031794;28;20293;-71
2022/01/30 11:05:54;;;;;;;19.25;9.25;;;;;;;6.88;45.19;94885.28;5032348;28;20203;-70
2022/01/30 11:08:24;;;;;;;19.30;9.98;;;;;;;7.22;45.15;94886.16;5031976;28;20203;-70
2022/01/30 11:11:01;;;;;;;12.90;8.80;;;;;;;7.37;45.06;94857.19;5033276;28;20325;-69
2022/01/30 11:13:33;;;;;;;23.38;9.20;;;;;;;7.22;43.40;94835.63;5033913;28;20256;-69
2022/01/30 11:16:56;;;;;;;21.50;10.15;;;;;;;6.94;43.36;94839.66;5033246;28;20227;-70
2022/01/30 11:18:51;;;;;;;24.85;9.63;;;;;;;6.66;44.32;94842.84;5034178;28;20195;-70
2022/01/30 11:21:22;;;;;;;18.55;9.25;;;;;;;7.04;44.20;94841.97;5033984;28;20207;-70
2022/01/30 11:23:51;;;;;;;32.22;10.55;;;;;;;7.30;43.26;94845.56;5034357;28;20201;-70
2022/01/30 11:26:19;;;;;;;17.13;10.82;;;;;;;6.89;44.02;94854.13;5032884;28;20318;-69
2022/01/30 11:28:46;;;;;;;20.90;11.20;;;;;;;7.11;44.78;94848.53;5033488;28;20592;-70
2022/01/30 11:31:16;;;;;;;16.73;10.20;;;;;;;7.37;43.42;94844.56;5032631;28;20317;-69
2022/01/30 11:33:44;;;;;;;17.20;11.23;;;;;;;7.39;44.02;94852.94;5033404;28;20199;-69
2022/01/30 11:36:13;;;;;;;26.25;11.38;;;;;;;7.23;43.18;94844.88;5033551;28;20821;-70
2022/01/30 11:38:41;;;;;;;23.67;12.00;;;;;;;7.18;43.43;94834.03;5033416;28;20207;-69
2022/01/30 11:41:13;;;;;;;19.13;11.23;;;;;;;7.05;44.38;94818.34;5033688;28;20206;-70
2022/01/30 11:43:40;;;;;;;27.02;11.55;;;;;;;7.23;44.28;94816.25;5033673;28;20591;-70
2022/01/30 11:46:15;;;;;;;20.50;11.48;;;;;;;7.18;44.20;94813.81;5032980;28;20195;-70
2022/01/30 11:48:43;;;;;;;21.05;10.93;;;;;;;7.22;45.13;94800.25;5031177;28;20207;-70
2022/01/30 11:51:10;;;;;;;20.58;10.90;;;;;;;7.37;44.29;94794.81;5031399;28;20211;-70
2022/01/30 11:53:38;;;;;;;27.58;11.68;;;;;;;7.55;43.92;94795.22;5030421;28;20304;-71
2022/01/30 11:56:06;;;;;;;20.88;12.43;;;;;;;7.53;44.09;94791.88;5031322;28;20301;-70
2022/01/30 11:58:55;;;;;;;22.67;12.57;;;;;;;7.54;43.22;94791.03;5031597;28;21424;-70
2022/01/30 12:01:37;;;;;;;21.25;11.98;;;;;;;7.81;51.46;94785.22;5031881;28;20195;-76
2022/01/30 12:04:21;;;;;;;23.17;12.43;;;;;;;8.35;47.49;94782.03;5031536;28;20210;-72
2022/01/30 12:06:50;;;;;;;26.38;12.90;;;;;;;9.23;51.59;94786.88;5028304;28;20636;-75